sensor_id;sensor_type;location;lat;lon;timestamp;P1;durP1;ratioP1;P2;durP2;ratioP2
50649;SDS011;36621;60.058;30.346;2023-04-15T04:03:51;8.77;;;2.00;;
50649;SDS011;36621;60.058;30.346;2023-04-15T04:11:24;7.22;;;2.53;;
50649;SDS011;36621;60.058;30.346;2023-04-15T04:19:00;5.55;;;2.47;;
50649;SDS011;36621;60.058;30.346;2023-04-15T04:26:33;8.93;;;2.72;;
50649;SDS011;36621;60.058;30.346;2023-04-15T04:34:09;13.40;;;2.65;;
50649;SDS011;36621;60.058;30.346;2023-04-15T04:41:51;7.43;;;1.65;;
50649;SDS011;36621;60.058;30.346;2023-04-15T04:49:25;14.30;;;2.63;;
50649;SDS011;36621;60.058;30.346;2023-04-15T04:56:58;8.98;;;2.13;;
50649;SDS011;36621;60.058;30.346;2023-04-15T05:04:33;6.15;;;2.03;;
50649;SDS011;36621;60.058;30.346;2023-04-15T05:12:06;7.05;;;3.22;;
50649;SDS011;36621;60.058;30.346;2023-04-15T05:19:45;8.37;;;1.77;;
50649;SDS011;36621;60.058;30.346;2023-04-15T05:27:19;14.80;;;2.45;;
50649;SDS011;36621;60.058;30.346;2023-04-15T05:34:54;6.90;;;2.20;;
50649;SDS011;36621;60.058;30.346;2023-04-15T05:42:27;8.07;;;2.70;;
50649;SDS011;36621;60.058;30.346;2023-04-15T05:50:02;13.13;;;3.00;;
50649;SDS011;36621;60.058;30.346;2023-04-15T05:57:35;20.88;;;4.30;;
50649;SDS011;36621;60.058;30.346;2023-04-15T06:05:09;9.88;;;3.00;;
50649;SDS011;36621;60.058;30.346;2023-04-15T06:12:43;18.08;;;2.95;;
50649;SDS011;36621;60.058;30.346;2023-04-15T06:20:17;10.57;;;2.72;;
50649;SDS011;36621;60.058;30.346;2023-04-15T06:27:50;10.65;;;2.72;;
50649;SDS011;36621;60.058;30.346;2023-04-15T06:35:24;7.97;;;2.45;;
50649;SDS011;36621;60.058;30.346;2023-04-15T06:42:58;20.63;;;2.22;;
50649;SDS011;36621;60.058;30.346;2023-04-15T06:50:32;7.25;;;3.45;;
50649;SDS011;36621;60.058;30.346;2023-04-15T06:58:06;13.95;;;2.90;;
50649;SDS011;36621;60.058;30.346;2023-04-15T07:05:41;8.13;;;2.47;;
50649;SDS011;36621;60.058;30.346;2023-04-15T07:13:15;7.50;;;1.85;;
50649;SDS011;36621;60.058;30.346;2023-04-15T07:20:49;7.88;;;2.15;;
50649;SDS011;36621;60.058;30.346;2023-04-15T07:28:22;11.52;;;2.28;;
50649;SDS011;36621;60.058;30.346;2023-04-15T07:35:56;5.93;;;2.20;;
50649;SDS011;36621;60.058;30.346;2023-04-15T07:43:30;5.55;;;2.15;;
50649;SDS011;36621;60.058;30.346;2023-04-15T07:51:04;9.20;;;2.20;;
50649;SDS011;36621;60.058;30.346;2023-04-15T07:58:38;12.80;;;4.75;;
50649;SDS011;36621;60.058;30.346;2023-04-15T08:06:12;5.13;;;2.10;;
50649;SDS011;36621;60.058;30.346;2023-04-15T08:13:45;14.90;;;2.47;;
50649;SDS011;36621;60.058;30.346;2023-04-15T08:21:19;7.60;;;2.67;;
50649;SDS011;36621;60.058;30.346;2023-04-15T08:28:54;15.43;;;3.15;;
50649;SDS011;36621;60.058;30.346;2023-04-15T08:36:28;6.70;;;2.28;;
50649;SDS011;36621;60.058;30.346;2023-04-15T08:44:02;4.05;;;2.00;;
50649;SDS011;36621;60.058;30.346;2023-04-15T08:51:38;5.32;;;1.90;;
50649;SDS011;36621;60.058;30.346;2023-04-15T08:59:12;6.30;;;2.50;;
50649;SDS011;36621;60.058;30.346;2023-04-15T09:06:46;9.55;;;2.42;;
50649;SDS011;36621;60.058;30.346;2023-04-15T09:14:20;8.77;;;2.15;;
50649;SDS011;36621;60.058;30.346;2023-04-15T09:21:55;10.70;;;3.00;;
50649;SDS011;36621;60.058;30.346;2023-04-15T09:29:30;7.13;;;1.67;;
50649;SDS011;36621;60.058;30.346;2023-04-15T09:37:04;7.57;;;2.13;;
50649;SDS011;36621;60.058;30.346;2023-04-15T09:44:38;5.18;;;2.22;;
50649;SDS011;36621;60.058;30.346;2023-04-15T09:52:13;7.55;;;2.13;;
50649;SDS011;36621;60.058;30.346;2023-04-15T09:59:46;4.38;;;1.75;;
50649;SDS011;36621;60.058;30.346;2023-04-15T10:07:21;8.88;;;2.13;;
50649;SDS011;36621;60.058;30.346;2023-04-15T10:14:57;15.07;;;3.00;;
50649;SDS011;36621;60.058;30.346;2023-04-15T10:22:33;18.98;;;2.35;;
50649;SDS011;36621;60.058;30.346;2023-04-15T10:30:08;9.52;;;1.80;;
50649;SDS011;36621;60.058;30.346;2023-04-15T10:37:43;19.45;;;3.20;;
50649;SDS011;36621;60.058;30.346;2023-04-15T10:45:17;6.90;;;2.10;;
50649;SDS011;36621;60.058;30.346;2023-04-15T10:52:51;11.68;;;2.28;;
50649;SDS011;36621;60.058;30.346;2023-04-15T11:00:26;16.40;;;2.70;;
50649;SDS011;36621;60.058;30.346;2023-04-15T11:08:02;10.10;;;2.33;;
50649;SDS011;36621;60.058;30.346;2023-04-15T11:15:36;15.77;;;2.53;;
50649;SDS011;36621;60.058;30.346;2023-04-15T11:23:12;13.82;;;2.97;;
50649;SDS011;36621;60.058;30.346;2023-04-15T11:30:46;18.88;;;3.47;;
50649;SDS011;36621;60.058;30.346;2023-04-15T11:38:21;12.13;;;3.55;;
50649;SDS011;36621;60.058;30.346;2023-04-15T11:45:55;14.02;;;2.47;;
50649;SDS011;36621;60.058;30.346;2023-04-15T11:53:38;15.38;;;3.25;;
50649;SDS011;36621;60.058;30.346;2023-04-15T12:01:11;10.18;;;2.80;;
50649;SDS011;36621;60.058;30.346;2023-04-15T12:08:47;12.98;;;2.60;;
50649;SDS011;36621;60.058;30.346;2023-04-15T12:16:24;11.63;;;3.03;;
50649;SDS011;36621;60.058;30.346;2023-04-15T12:24:00;9.45;;;2.25;;
50649;SDS011;36621;60.058;30.346;2023-04-15T12:31:34;14.88;;;3.20;;
50649;SDS011;36621;60.058;30.346;2023-04-15T12:39:07;14.77;;;3.72;;
50649;SDS011;36621;60.058;30.346;2023-04-15T12:46:40;8.40;;;2.17;;
50649;SDS011;36621;60.058;30.346;2023-04-15T12:54:13;7.30;;;2.25;;
50649;SDS011;36621;60.058;30.346;2023-04-15T13:01:46;8.90;;;3.13;;
50649;SDS011;36621;60.058;30.346;2023-04-15T13:09:20;11.30;;;3.38;;
50649;SDS011;36621;60.058;30.346;2023-04-15T13:16:52;13.93;;;2.90;;
50649;SDS011;36621;60.058;30.346;2023-04-15T13:24:28;13.60;;;2.92;;
50649;SDS011;36621;60.058;30.346;2023-04-15T13:32:03;15.82;;;2.78;;
50649;SDS011;36621;60.058;30.346;2023-04-15T13:39:36;11.68;;;3.20;;
50649;SDS011;36621;60.058;30.346;2023-04-15T13:47:08;31.98;;;3.53;;
50649;SDS011;36621;60.058;30.346;2023-04-15T13:54:41;26.55;;;3.30;;
50649;SDS011;36621;60.058;30.346;2023-04-15T14:02:13;5.93;;;1.80;;
50649;SDS011;36621;60.058;30.346;2023-04-15T14:09:45;10.88;;;2.30;;
50649;SDS011;36621;60.058;30.346;2023-04-15T14:17:25;13.07;;;2.25;;
50649;SDS011;36621;60.058;30.346;2023-04-15T14:24:58;4.28;;;2.05;;
50649;SDS011;36621;60.058;30.346;2023-04-15T14:32:31;16.38;;;2.25;;
50649;SDS011;36621;60.058;30.346;2023-04-15T14:40:07;20.70;;;3.30;;
50649;SDS011;36621;60.058;30.346;2023-04-15T14:47:40;9.65;;;2.90;;
50649;SDS011;36621;60.058;30.346;2023-04-15T14:55:13;10.60;;;2.72;;
50649;SDS011;36621;60.058;30.346;2023-04-15T15:02:45;8.80;;;2.50;;
50649;SDS011;36621;60.058;30.346;2023-04-15T15:10:18;13.18;;;2.88;;
50649;SDS011;36621;60.058;30.346;2023-04-15T15:17:52;11.05;;;2.65;;
50649;SDS011;36621;60.058;30.346;2023-04-15T15:25:25;9.63;;;3.38;;
50649;SDS011;36621;60.058;30.346;2023-04-15T15:32:57;17.05;;;2.28;;
50649;SDS011;36621;60.058;30.346;2023-04-15T15:40:30;14.75;;;2.45;;
50649;SDS011;36621;60.058;30.346;2023-04-15T15:48:02;11.63;;;3.97;;
50649;SDS011;36621;60.058;30.346;2023-04-15T15:55:35;14.43;;;3.05;;
50649;SDS011;36621;60.058;30.346;2023-04-15T16:03:07;13.10;;;3.38;;
50649;SDS011;36621;60.058;30.346;2023-04-15T16:10:41;14.82;;;3.05;;
50649;SDS011;36621;60.058;30.346;2023-04-15T16:18:12;8.88;;;3.00;;
50649;SDS011;36621;60.058;30.346;2023-04-15T16:25:45;13.90;;;3.50;;
50649;SDS011;36621;60.058;30.346;2023-04-15T16:33:18;15.75;;;3.20;;
50649;SDS011;36621;60.058;30.346;2023-04-15T16:40:50;27.33;;;3.90;;
50649;SDS011;36621;60.058;30.346;2023-04-15T16:48:22;18.63;;;4.45;;
50649;SDS011;36621;60.058;30.346;2023-04-15T16:55:55;31.13;;;3.78;;
50649;SDS011;36621;60.058;30.346;2023-04-15T17:03:27;14.35;;;2.83;;
50649;SDS011;36621;60.058;30.346;2023-04-15T17:11:00;13.48;;;2.95;;
50649;SDS011;36621;60.058;30.346;2023-04-15T17:18:32;14.73;;;3.20;;
50649;SDS011;36621;60.058;30.346;2023-04-15T17:26:19;12.82;;;3.55;;
50649;SDS011;36621;60.058;30.346;2023-04-15T17:33:56;11.65;;;2.70;;
50649;SDS011;36621;60.058;30.346;2023-04-15T17:41:48;13.85;;;2.55;;
50649;SDS011;36621;60.058;30.346;2023-04-15T17:49:40;9.82;;;3.10;;
50649;SDS011;36621;60.058;30.346;2023-04-15T17:57:34;23.02;;;3.88;;
50649;SDS011;36621;60.058;30.346;2023-04-15T18:05:26;15.45;;;2.95;;
50649;SDS011;36621;60.058;30.346;2023-04-15T18:13:19;16.92;;;4.60;;
50649;SDS011;36621;60.058;30.346;2023-04-15T18:21:12;23.63;;;3.10;;
50649;SDS011;36621;60.058;30.346;2023-04-15T18:28:45;27.58;;;3.58;;
50649;SDS011;36621;60.058;30.346;2023-04-15T18:36:17;17.63;;;3.33;;
50649;SDS011;36621;60.058;30.346;2023-04-15T18:43:53;15.60;;;3.30;;
50649;SDS011;36621;60.058;30.346;2023-04-15T18:51:26;14.93;;;3.25;;
50649;SDS011;36621;60.058;30.346;2023-04-15T18:58:59;11.20;;;3.08;;
50649;SDS011;36621;60.058;30.346;2023-04-15T19:06:32;15.38;;;4.70;;
50649;SDS011;36621;60.058;30.346;2023-04-15T19:14:06;13.88;;;4.28;;
50649;SDS011;36621;60.058;30.346;2023-04-15T19:21:38;18.45;;;4.18;;
50649;SDS011;36621;60.058;30.346;2023-04-15T19:29:11;17.42;;;3.70;;
50649;SDS011;36621;60.058;30.346;2023-04-15T19:36:43;16.77;;;3.67;;
50649;SDS011;36621;60.058;30.346;2023-04-15T19:44:15;25.73;;;4.43;;
50649;SDS011;36621;60.058;30.346;2023-04-15T19:51:48;11.40;;;3.40;;
50649;SDS011;36621;60.058;30.346;2023-04-15T20:07:42;9.02;;;3.08;;
50649;SDS011;36621;60.058;30.346;2023-04-15T20:15:17;18.08;;;3.78;;
50649;SDS011;36621;60.058;30.346;2023-04-15T20:22:50;14.02;;;4.13;;
50649;SDS011;36621;60.058;30.346;2023-04-15T20:30:23;8.05;;;3.50;;
50649;SDS011;36621;60.058;30.346;2023-04-15T20:37:59;16.42;;;3.53;;
50649;SDS011;36621;60.058;30.346;2023-04-15T20:45:32;15.73;;;4.25;;
50649;SDS011;36621;60.058;30.346;2023-04-15T20:53:05;15.43;;;3.75;;
50649;SDS011;36621;60.058;30.346;2023-04-15T21:00:37;11.65;;;3.97;;
50649;SDS011;36621;60.058;30.346;2023-04-15T21:08:10;16.38;;;4.13;;
50649;SDS011;36621;60.058;30.346;2023-04-15T21:15:42;17.05;;;3.65;;
50649;SDS011;36621;60.058;30.346;2023-04-15T21:23:16;26.05;;;5.80;;
50649;SDS011;36621;60.058;30.346;2023-04-15T21:30:49;33.88;;;7.22;;
50649;SDS011;36621;60.058;30.346;2023-04-15T21:38:22;24.55;;;6.22;;
50649;SDS011;36621;60.058;30.346;2023-04-15T21:45:53;12.35;;;4.38;;
50649;SDS011;36621;60.058;30.346;2023-04-15T21:53:26;18.40;;;4.00;;
50649;SDS011;36621;60.058;30.346;2023-04-15T22:00:58;15.48;;;4.00;;
50649;SDS011;36621;60.058;30.346;2023-04-15T22:08:31;9.02;;;4.18;;
50649;SDS011;36621;60.058;30.346;2023-04-15T22:16:03;9.57;;;3.53;;
50649;SDS011;36621;60.058;30.346;2023-04-15T22:23:36;9.50;;;3.63;;
50649;SDS011;36621;60.058;30.346;2023-04-15T22:31:08;16.55;;;4.22;;
50649;SDS011;36621;60.058;30.346;2023-04-15T22:38:41;15.75;;;4.15;;
50649;SDS011;36621;60.058;30.346;2023-04-15T22:46:13;14.98;;;3.92;;
50649;SDS011;36621;60.058;30.346;2023-04-15T22:53:45;12.70;;;4.63;;
50649;SDS011;36621;60.058;30.346;2023-04-15T23:01:17;36.20;;;6.38;;
50649;SDS011;36621;60.058;30.346;2023-04-15T23:08:51;32.30;;;5.78;;
50649;SDS011;36621;60.058;30.346;2023-04-15T23:16:23;30.80;;;5.40;;
50649;SDS011;36621;60.058;30.346;2023-04-15T23:23:56;20.88;;;5.80;;
50649;SDS011;36621;60.058;30.346;2023-04-15T23:31:28;15.23;;;4.38;;
50649;SDS011;36621;60.058;30.346;2023-04-15T23:39:00;10.48;;;4.68;;
50649;SDS011;36621;60.058;30.346;2023-04-15T23:46:32;12.30;;;3.58;;
50649;SDS011;36621;60.058;30.346;2023-04-15T23:54:05;8.30;;;3.13;;
